• Join FlightAware (Why Join?)
  • Login
  • US Flag 
02:15AM EST


 

Airport Tracker/Info


-or-


 

Live Flight TrackerFlight Track Log ✈ HS-TGY ✈ 23-Jan-2014 ✈ YSSY / SYD - VTBS / BKK

Flight Track Log - Related Links

Times and Time Zones

All times are in EST time to prevent confusion due to time zone crossing. See the HS-TGY flight status page for this flight to view local times or setup timezone preferences in your user account.

Time Position Orientation Groundspeed Altitude Reporting Facility
EST Latitude Longitude Course Direction KTS MPH feet Rate Location/Type
06:13PM -33.9573 151.1790 349° North 100 115  Level FlightAware ADS-B (YRAY)
06:13PM -33.9443 151.1755 348° North 169 194 480 Level FlightAware ADS-B (YRAY)
06:14PM -33.9317 151.1722 348° North 185 213 300 2,040 Climbing FlightAware ADS-B (YRPA)
06:14PM -33.9179 151.1688 348° North 186 214 1,200 2,460 Climbing FlightAware ADS-B (YWST)
06:14PM -33.9007 151.1634 345° North 189 217 1,800 2,160 Climbing FlightAware ADS-B (YRAY)
06:14PM -33.8950 151.1598 332° Northwest 194 223 2,100 2,160 Climbing FlightAware ADS-B (YRAY)
06:15PM -33.8873 151.1518 319° Northwest 199 229 2,500 1,980 Climbing FlightAware ADS-B (YRAY)
06:15PM -33.8771 151.1388 313° West 197 227 3,000 1,620 Climbing FlightAware ADS-B (YRPA)
06:15PM -33.8664 151.1242 311° West 219 252 3,400 960 Climbing FlightAware ADS-B (YRAY)
06:15PM -33.8559 151.1110 314° West 239 275 3,500 780 Climbing FlightAware ADS-B (YRAY)
06:16PM -33.8441 151.0956 313° West 255 293 3,800 1,680 Climbing FlightAware ADS-B
06:16PM -33.8315 151.0792 313° West 277 319 4,400 1,740 Climbing FlightAware ADS-B
06:16PM -33.8227 151.0678 313° West 282 325 4,500 2,160 Climbing FlightAware ADS-B (YRAY)
06:16PM -33.8077 151.0480 312° West 285 328 5,300 3,060 Climbing FlightAware ADS-B (YWST)
06:17PM -33.7898 151.0246 313° West 285 328 6,400 3,300 Climbing FlightAware ADS-B (YWST)
06:17PM -33.7754 151.0060 313° West 287 330 7,300 3,060 Climbing FlightAware ADS-B
06:17PM -33.7576 150.9837 314° West 288 331 8,200 2,640 Climbing FlightAware ADS-B
06:18PM -33.7397 150.9599 312° West 296 341 9,000 2,520 Climbing FlightAware ADS-B
06:18PM -33.7208 150.9356 313° West 301 346 9,900 1,920 Climbing FlightAware ADS-B
06:18PM -33.6875 150.8932 313° West 332 382 10,700 1,740 Climbing FlightAware ADS-B
06:19PM -33.6525 150.8483 313° West 352 405 11,800 2,520 Climbing FlightAware ADS-B (YWST)
06:19PM -33.6169 150.8032 314° West 365 420 13,500 2,700 Climbing FlightAware ADS-B
06:20PM -33.5874 150.7591 309° West 369 425 14,500 2,580 Climbing FlightAware ADS-B (YRPA)
06:21PM -33.5484 150.6884 303° West 377 434 16,400 3,120 Climbing FlightAware ADS-B (YWST)
06:21PM -33.5267 150.6477 303° West 386 444 17,800 2,460 Climbing FlightAware ADS-B
06:21PM -33.4979 150.5950 303° West 395 455 18,600 1,980 Climbing FlightAware ADS-B (YWST)
06:22PM -33.4514 150.5114 304° West 407 468 20,300 2,220 Climbing FlightAware ADS-B (YWST)
06:23PM -33.4170 150.4484 303° West 417 480 21,500 1,560 Climbing FlightAware ADS-B (YRPA)
06:24PM -33.3595 150.3427 303° West 449 517 22,600 1,140 Climbing FlightAware ADS-B (YPLB)
06:24PM -33.3118 150.2568 304° West 475 547 23,300 1,560 Climbing FlightAware ADS-B (YPLB)
06:25PM -33.2743 150.1878 303° West 484 557 24,600 1,500 Climbing FlightAware ADS-B (YPLB)
06:32PM -32.7254 149.2083 304° West 463 533 35,300 420 Climbing Aus ATC (RADAR)
06:47PM -31.6583 147.3727 308° West 461 531 35,000  Descending Aus ATC (RADAR)
06:48PM -31.4888 147.3039 308° West  Level Estimated
06:49PM -31.5242 147.1653 318° Northwest  Level FlightAware Approximate
06:56PM -30.8272 146.4369 318° Northwest  Level FlightAware Approximate
06:57PM -30.7273 146.3338 318° Northwest  Level FlightAware Approximate
06:58PM -30.6273 146.2308 318° Northwest  Level FlightAware Approximate
06:59PM -30.5272 146.1280 318° Northwest  Level FlightAware Approximate
07:00PM -30.4271 146.0255 319° Northwest  Level FlightAware Approximate
07:01PM -30.3268 145.9232 319° Northwest  Level FlightAware Approximate
07:02PM -30.2265 145.8210 319° Northwest  Level FlightAware Approximate
07:03PM -30.1261 145.7191 319° Northwest  Level FlightAware Approximate
07:04PM -30.0257 145.6174 319° Northwest  Level FlightAware Approximate
07:05PM -29.9251 145.5159 319° Northwest  Level FlightAware Approximate
07:06PM -29.8245 145.4146 319° Northwest  Level FlightAware Approximate
07:07PM -29.7238 145.3135 319° Northwest  Level FlightAware Approximate
07:08PM -29.6230 145.2126 319° Northwest  Level FlightAware Approximate
07:09PM -29.5222 145.1119 319° Northwest  Level FlightAware Approximate
07:10PM -29.4212 145.0114 319° Northwest  Level FlightAware Approximate
07:10PM -29.2800 144.8714 319° Northwest 35,000  Level Aus ATC (Calculated)
07:11PM -29.3202 144.9111 319° Northwest  Level FlightAware Approximate
07:12PM -29.2192 144.8111 319° Northwest  Level FlightAware Approximate
07:13PM -29.0861 144.5977 319° Northwest  Level Estimated
07:14PM -28.9823 144.4977 320° Northwest  Level FlightAware Approximate
07:15PM -28.8784 144.3980 320° Northwest  Level FlightAware Approximate
07:16PM -28.7744 144.2984 320° Northwest  Level FlightAware Approximate
07:17PM -28.6704 144.1990 320° Northwest  Level FlightAware Approximate
07:18PM -28.5663 144.0998 320° Northwest  Level FlightAware Approximate
07:19PM -28.4621 144.0008 320° Northwest  Level FlightAware Approximate
07:20PM -28.3578 143.9020 320° Northwest  Level FlightAware Approximate
07:21PM -28.2535 143.8034 320° Northwest  Level FlightAware Approximate
07:22PM -28.1491 143.7050 320° Northwest  Level FlightAware Approximate
07:23PM -28.0446 143.6068 320° Northwest  Level FlightAware Approximate
07:24PM -27.9401 143.5088 320° Northwest  Level FlightAware Approximate
07:25PM -27.8355 143.4109 320° Northwest  Level FlightAware Approximate
07:26PM -27.7308 143.3133 320° Northwest  Level FlightAware Approximate
07:27PM -27.6260 143.2158 320° Northwest  Level FlightAware Approximate
07:28PM -27.5212 143.1185 321° Northwest  Level FlightAware Approximate
07:29PM -27.4163 143.0215 321° Northwest  Level FlightAware Approximate
07:30PM -27.3114 142.9245 321° Northwest  Level FlightAware Approximate
07:31PM -27.2064 142.8278 321° Northwest  Level FlightAware Approximate
07:32PM -27.1013 142.7313 321° Northwest  Level FlightAware Approximate
07:33PM -26.9961 142.6349 321° Northwest  Level FlightAware Approximate
07:34PM -26.8909 142.5388 321° Northwest  Level FlightAware Approximate
07:35PM -26.7856 142.4427 321° Northwest  Level FlightAware Approximate
07:36PM -26.6803 142.3469 321° Northwest  Level FlightAware Approximate
07:37PM -26.5749 142.2513 321° Northwest  Level FlightAware Approximate
07:38PM -26.4694 142.1558 321° Northwest  Level FlightAware Approximate
07:39PM -26.3638 142.0605 321° Northwest  Level FlightAware Approximate
07:40PM -26.2582 141.9654 321° Northwest  Level FlightAware Approximate
07:41PM -26.1526 141.8705 321° Northwest  Level FlightAware Approximate
07:42PM -26.0469 141.7757 321° Northwest  Level FlightAware Approximate
07:43PM -25.9411 141.6811 321° Northwest  Level FlightAware Approximate
07:44PM -25.8352 141.5867 321° Northwest  Level FlightAware Approximate
07:45PM -25.7293 141.4924 321° Northwest  Level FlightAware Approximate
07:46PM -25.6233 141.3983 321° Northwest  Level FlightAware Approximate
07:47PM -25.5173 141.3044 321° Northwest  Level FlightAware Approximate
07:48PM -25.4112 141.2106 321° Northwest  Level FlightAware Approximate
07:49PM -25.3237 141.0957 321° Northwest  Level Estimated
07:50PM -25.2180 141.0016 321° Northwest  Level FlightAware Approximate
07:51PM -25.1122 140.9077 321° Northwest  Level FlightAware Approximate
07:52PM -25.0063 140.8139 321° Northwest  Level FlightAware Approximate
07:53PM -24.9004 140.7204 321° Northwest  Level FlightAware Approximate
07:54PM -24.7944 140.6269 321° Northwest  Level FlightAware Approximate
07:55PM -24.6884 140.5336 321° Northwest  Level FlightAware Approximate
07:56PM -24.5823 140.4405 321° Northwest  Level FlightAware Approximate
07:57PM -24.4761 140.3475 321° Northwest  Level FlightAware Approximate
07:58PM -24.3699 140.2547 321° Northwest  Level FlightAware Approximate
07:59PM -24.2637 140.1621 322° Northwest  Level FlightAware Approximate
08:00PM -24.1573 140.0696 322° Northwest  Level FlightAware Approximate
08:01PM -24.0510 139.9772 322° Northwest  Level FlightAware Approximate
08:02PM -23.9445 139.8851 322° Northwest  Level FlightAware Approximate
08:03PM -23.8380 139.7930 322° Northwest  Level FlightAware Approximate
08:04PM -23.7315 139.7011 322° Northwest  Level FlightAware Approximate
08:05PM -23.6249 139.6094 322° Northwest  Level FlightAware Approximate
08:06PM -23.5182 139.5178 322° Northwest  Level FlightAware Approximate
08:07PM -23.4115 139.4263 322° Northwest  Level FlightAware Approximate
08:08PM -23.3048 139.3351 322° Northwest  Level FlightAware Approximate
08:09PM -23.1980 139.2439 322° Northwest  Level FlightAware Approximate
08:10PM -23.0911 139.1529 322° Northwest  Level FlightAware Approximate
08:11PM -22.9842 139.0621 322° Northwest  Level FlightAware Approximate
08:12PM -22.8772 138.9713 322° Northwest  Level FlightAware Approximate
08:13PM -22.7702 138.8808 322° Northwest  Level FlightAware Approximate
08:14PM -22.6631 138.7903 322° Northwest  Level FlightAware Approximate
08:15PM -22.5560 138.7000 322° Northwest  Level FlightAware Approximate
08:16PM -22.4488 138.6099 322° Northwest  Level FlightAware Approximate
08:17PM -22.3416 138.5199 322° Northwest  Level FlightAware Approximate
08:18PM -22.2344 138.4300 322° Northwest  Level FlightAware Approximate
08:19PM -22.1270 138.3403 322° Northwest  Level FlightAware Approximate
08:20PM -22.0197 138.2507 322° Northwest  Level FlightAware Approximate
08:21PM -21.9122 138.1612 322° Northwest  Level FlightAware Approximate
08:22PM -21.8048 138.0719 322° Northwest  Level FlightAware Approximate
08:23PM -21.6973 137.9827 322° Northwest  Level FlightAware Approximate
08:24PM -21.6087 137.8721 322° Northwest  Level Estimated
08:25PM -21.4998 137.7850 323° Northwest  Level FlightAware Approximate
08:26PM -21.3908 137.6981 323° Northwest  Level FlightAware Approximate
08:27PM -21.2817 137.6114 323° Northwest  Level FlightAware Approximate
08:28PM -21.1726 137.5247 323° Northwest  Level FlightAware Approximate
08:29PM -21.0635 137.4382 323° Northwest  Level FlightAware Approximate
08:30PM -20.9543 137.3518 324° Northwest  Level FlightAware Approximate
08:31PM -20.8451 137.2655 324° Northwest  Level FlightAware Approximate
08:32PM -20.7359 137.1794 324° Northwest  Level FlightAware Approximate
08:33PM -20.6266 137.0934 324° Northwest  Level FlightAware Approximate
08:34PM -20.5172 137.0075 324° Northwest  Level FlightAware Approximate
08:35PM -20.4079 136.9217 324° Northwest  Level FlightAware Approximate
08:36PM -20.2984 136.8361 324° Northwest  Level FlightAware Approximate
08:37PM -20.2097 136.7266 323° Northwest  Level Estimated
08:38PM -20.1008 136.6402 323° Northwest  Level FlightAware Approximate
08:39PM -19.9920 136.5540 323° Northwest  Level FlightAware Approximate
08:40PM -19.8830 136.4679 323° Northwest  Level FlightAware Approximate
08:40PM -18.9773 135.7847 323° Northwest 35,000  Level Aus ATC (Calculated)
08:41PM -19.7741 136.3819 323° Northwest  Level FlightAware Approximate
08:42PM -19.6650 136.2960 323° Northwest  Level FlightAware Approximate
08:43PM -19.5560 136.2102 323° Northwest  Level FlightAware Approximate
08:44PM -19.4469 136.1245 323° Northwest  Level FlightAware Approximate
08:45PM -18.4750 135.3892 323° Northwest  Level FlightAware Approximate
08:46PM -18.3661 135.3038 323° Northwest  Level FlightAware Approximate
08:47PM -18.2571 135.2186 323° Northwest  Level FlightAware Approximate
08:48PM -18.1481 135.1334 323° Northwest  Level FlightAware Approximate
08:49PM -18.0391 135.0484 323° Northwest  Level FlightAware Approximate
08:50PM -17.9300 134.9635 323° Northwest  Level FlightAware Approximate
08:51PM -17.8209 134.8786 323° Northwest  Level FlightAware Approximate
08:52PM -17.7118 134.7939 324° Northwest  Level FlightAware Approximate
08:53PM -17.6026 134.7093 324° Northwest  Level FlightAware Approximate
08:54PM -17.4934 134.6248 324° Northwest  Level FlightAware Approximate
08:55PM -17.3841 134.5403 324° Northwest  Level FlightAware Approximate
08:56PM -17.2748 134.4560 324° Northwest  Level FlightAware Approximate
08:57PM -17.1655 134.3718 324° Northwest  Level FlightAware Approximate
08:58PM -17.0561 134.2877 324° Northwest  Level FlightAware Approximate
08:59PM -16.9468 134.2037 324° Northwest  Level FlightAware Approximate
09:00PM -16.8373 134.1198 324° Northwest  Level FlightAware Approximate
09:01PM -16.7279 134.0359 324° Northwest  Level FlightAware Approximate
09:02PM -16.6184 133.9522 324° Northwest  Level FlightAware Approximate
09:03PM -16.5088 133.8686 324° Northwest  Level FlightAware Approximate
09:04PM -16.6184 133.9522 144° Southeast  Level FlightAware Approximate
09:05PM -16.5088 133.8686 324° Northwest  Level FlightAware Approximate
09:06PM -16.6184 133.9522 144° Southeast  Level FlightAware Approximate
09:06PM -15.9937 133.4789 144° Southeast 512 589 35,800  Level Aus ATC (RADAR)
09:07PM -15.8018 133.3330 324° Northwest 501 577 35,800  Level Aus ATC (RADAR)
09:09PM -15.6085 133.1867 324° Northwest 505 581 35,800  Level Aus ATC (RADAR)
09:11PM -15.3875 133.0206 324° Northwest 501 577 35,800  Level Aus ATC (RADAR)
09:13PM -15.1980 132.8789 324° Northwest 497 572 35,800  Level Aus ATC (RADAR)
09:14PM -14.9983 132.7277 324° Northwest 503 579 35,800  Level Aus ATC (RADAR)
09:16PM -14.8254 132.5993 324° Northwest 506 582 35,800  Level Aus ATC (RADAR)
09:18PM -14.5924 132.4283 325° Northwest 515 593 35,800  Level Aus ATC (RADAR)
09:20PM -14.3792 132.2712 324° Northwest 492 566 35,800  Level Aus ATC (RADAR)
09:21PM -14.2033 132.1498 326° Northwest 491 565 35,800  Level Aus ATC (RADAR)
09:21PM -14.1645 132.1225 326° Northwest 491 565 35,800  Level Aus ATC (RADAR)
09:25PM -13.8067 131.8710 326° Northwest 492 566 35,800 60 Level Aus ATC (RADAR)
09:25PM -13.8134 131.8747 326° Northwest 508 585 36,000 300 Climbing FlightAware ADS-B (YPDN / DRW)
09:25PM -13.7295 131.8157 326° Northwest 509 586 36,000  Level FlightAware ADS-B (YPDN / DRW)
09:26PM -13.6513 131.7610 326° Northwest 510 587 36,000  Level FlightAware ADS-B (YPDN / DRW)
09:27PM -13.5768 131.7092 326° Northwest 510 587 36,000  Level FlightAware ADS-B (YPDN / DRW)
09:27PM -13.4961 131.6532 326° Northwest 509 586 36,000  Level FlightAware ADS-B (YPDN / DRW)
09:28PM -13.4195 131.5987 325° Northwest 507 583 36,000  Level FlightAware ADS-B (YPDN / DRW)
09:29PM -13.3408 131.5444 326° Northwest 507 583 36,000  Level FlightAware ADS-B (YPDN / DRW)
09:29PM -13.2653 131.4916 326° Northwest 506 582 36,000  Level FlightAware ADS-B (YPDN / DRW)
09:30PM -13.1859 131.4361 326° Northwest 505 581 36,000  Level FlightAware ADS-B (YPDN / DRW)
09:31PM -13.1109 131.3836 326° Northwest 503 579 36,000  Level FlightAware ADS-B (YPDN / DRW)
09:31PM -13.0306 131.3287 326° Northwest 502 578 36,000  Level FlightAware ADS-B (YPDN / DRW)
09:32PM -12.9533 131.2750 326° Northwest 501 577 36,000  Level FlightAware ADS-B (YPDN / DRW)
09:33PM -12.8794 131.2229 325° Northwest 500 575 36,000  Level FlightAware ADS-B (YPDN / DRW)
09:33PM -12.7989 131.1671 326° Northwest 500 575 36,000  Level FlightAware ADS-B (YPDN / DRW)
09:34PM -12.7343 131.1231 326° Northwest 500 575 36,000  Level FlightAware ADS-B (YPDN / DRW)
09:35PM -12.6533 131.0657 325° Northwest 502 578 36,000  Level FlightAware ADS-B (YPDN / DRW)
09:35PM -12.5697 131.0083 326° Northwest 503 579 36,000  Level FlightAware ADS-B (YPDN / DRW)
09:36PM -12.4940 130.9559 326° Northwest 504 580 36,000  Level FlightAware ADS-B (YPDN / DRW)
09:37PM -12.4151 130.8968 324° Northwest 506 582 36,000  Level FlightAware ADS-B (YPDN / DRW)
09:37PM -12.3610 130.8469 318° Northwest 507 583 36,000  Level FlightAware ADS-B (YPDN / DRW)
09:38PM -12.2781 130.7675 317° Northwest 509 586 36,000  Level FlightAware ADS-B (YPDN / DRW)
09:39PM -12.2126 130.7027 316° Northwest 509 586 36,000  Level FlightAware ADS-B (YPDN / DRW)
09:39PM -12.1414 130.6347 317° Northwest 509 586 36,000  Level FlightAware ADS-B (YPDN / DRW)
09:40PM -12.0734 130.5685 316° Northwest 509 586 36,000  Level FlightAware ADS-B (YPDN / DRW)
09:41PM -12.0032 130.5006 317° Northwest 509 586 36,000  Level FlightAware ADS-B (YPDN / DRW)
09:41PM -11.9350 130.4347 317° Northwest 508 585 36,000  Level FlightAware ADS-B (YPDN / DRW)
09:42PM -11.8683 130.3704 317° Northwest 508 585 36,000  Level FlightAware ADS-B (YPDN / DRW)
09:43PM -11.7975 130.3027 317° Northwest 509 586 36,000  Level FlightAware ADS-B (YPDN / DRW)
09:43PM -11.7341 130.2418 317° Northwest 507 583 36,000  Level FlightAware ADS-B (YPDN / DRW)
09:44PM -11.6608 130.1712 317° Northwest 505 581 36,000  Level FlightAware ADS-B (YPDN / DRW)
09:45PM -11.5931 130.1057 317° Northwest 506 582 36,000  Level FlightAware ADS-B (YPDN / DRW)
09:45PM -11.5250 130.0417 317° Northwest 507 583 36,000  Level FlightAware ADS-B (YPDN / DRW)
09:46PM -11.4562 129.9744 316° Northwest 506 582 36,000  Level FlightAware ADS-B (YPDN / DRW)
09:47PM -11.3892 129.9107 317° Northwest 506 582 36,000  Level FlightAware ADS-B (YPDN / DRW)
09:47PM -11.3218 129.8453 316° Northwest 506 582 36,000  Level FlightAware ADS-B (YPDN / DRW)
09:48PM -11.2531 129.7798 317° Northwest 507 583 36,000  Level FlightAware ADS-B (YPDN / DRW)
09:49PM -11.2022 129.7322 317° Northwest 509 586 36,000 -180 Level FlightAware ADS-B (YPDN / DRW)
09:49PM -11.1010 129.6323 317° Northwest 489 563 35,800 -120 Descending Aus ATC (RADAR)
09:51PM -10.9546 129.4927 317° Northwest 491 565 35,800  Level Aus ATC (RADAR)
09:51PM -10.9287 129.4678 317° Northwest 491 565 35,800  Level Aus ATC (RADAR)
09:53PM -10.7643 129.3107 317° Northwest 493 567 35,800  Level Aus ATC (RADAR)
09:54PM -10.6167 129.1694 317° Northwest 495 570 35,800  Level Aus ATC (RADAR)
09:54PM -10.5797 129.1384 320° Northwest 496 571 35,800  Level Aus ATC (RADAR)
09:55PM -10.5119 129.0697 315° West 496 571 35,800  Level Aus ATC (RADAR)
09:56PM -10.4503 129.0117 317° Northwest 495 570 35,800  Level Aus ATC (RADAR)
09:57PM -10.3269 128.8965 317° Northwest 494 568 35,800  Level Aus ATC (RADAR)
09:57PM -10.3004 128.8720 318° Northwest 493 567 35,800  Level Aus ATC (RADAR)
09:58PM -10.2317 128.8051 316° Northwest 491 565 35,800  Level Aus ATC (RADAR)
09:58PM -10.1721 128.7463 316° Northwest 490 564 35,800  Level Aus ATC (RADAR)
09:59PM -10.0577 128.6424 318° Northwest 487 560 35,800  Level Aus ATC (RADAR)
10:00PM -9.9979 128.5848 316° Northwest 486 559 35,800  Level Aus ATC (RADAR)
10:01PM -9.9302 128.5196 317° Northwest 484 557 35,800  Level Aus ATC (RADAR)
10:01PM -9.9222 128.5120 317° Northwest 484 557 35,800 780 Level Aus ATC (RADAR)
10:02PM -9.7502 128.3454 316° Northwest 491 565 37,200 840 Climbing Aus ATC (RADAR)
10:03PM -9.7151 128.3159 320° Northwest 491 565 37,500 420 Climbing Aus ATC (RADAR)
10:04PM -9.5983 128.2131 319° Northwest 496 571 37,800 180 Climbing Aus ATC (RADAR)
10:05PM -9.4524 128.0677 315° West 494 568 38,000 60 Climbing Aus ATC (RADAR)
10:06PM -9.3928 128.0107 317° Northwest 493 567 38,000  Level Aus ATC (RADAR)
10:08PM -9.2860 127.9116 318° Northwest  Level FlightAware Approximate
10:15PM -8.8575 127.5166 318° Northwest  Level FlightAware Approximate
10:16PM -8.7961 127.4604 318° Northwest  Level FlightAware Approximate
10:17PM -8.7347 127.4043 318° Northwest  Level FlightAware Approximate
10:18PM -8.6733 127.3481 318° Northwest  Level FlightAware Approximate
10:19PM -8.6119 127.2919 318° Northwest  Level FlightAware Approximate
10:20PM -8.5506 127.2358 318° Northwest  Level FlightAware Approximate
10:21PM -8.4891 127.1797 318° Northwest  Level FlightAware Approximate
10:22PM -8.4277 127.1236 318° Northwest  Level FlightAware Approximate
10:23PM -8.3663 127.0675 318° Northwest  Level FlightAware Approximate
10:24PM -8.3049 127.0114 318° Northwest  Level FlightAware Approximate
10:25PM -8.2434 126.9554 318° Northwest  Level FlightAware Approximate
10:26PM -8.1820 126.8993 318° Northwest  Level FlightAware Approximate
10:27PM -8.1205 126.8433 318° Northwest  Level FlightAware Approximate
10:28PM -8.0590 126.7873 318° Northwest  Level FlightAware Approximate
10:29PM -7.9976 126.7313 318° Northwest  Level FlightAware Approximate
10:30PM -7.9361 126.6754 318° Northwest  Level FlightAware Approximate
10:31PM -7.8746 126.6194 318° Northwest  Level FlightAware Approximate
10:32PM -7.8131 126.5635 318° Northwest  Level FlightAware Approximate
10:33PM -7.7516 126.5076 318° Northwest  Level FlightAware Approximate
10:34PM -7.6901 126.4517 318° Northwest  Level FlightAware Approximate
10:35PM -7.6286 126.3958 318° Northwest  Level FlightAware Approximate
10:36PM -7.5670 126.3400 318° Northwest  Level FlightAware Approximate
10:37PM -7.5055 126.2841 318° Northwest  Level FlightAware Approximate
10:38PM -7.4440 126.2283 318° Northwest  Level FlightAware Approximate
10:39PM -7.3824 126.1724 318° Northwest  Level FlightAware Approximate
10:40PM -7.3209 126.1167 318° Northwest  Level FlightAware Approximate
10:41PM -7.2593 126.0609 318° Northwest  Level FlightAware Approximate
10:42PM -7.1978 126.0051 318° Northwest  Level FlightAware Approximate
10:43PM -7.1362 125.9493 318° Northwest  Level FlightAware Approximate
10:44PM -7.0746 125.8936 318° Northwest  Level FlightAware Approximate
10:45PM -7.0130 125.8379 318° Northwest  Level FlightAware Approximate
10:46PM -6.9514 125.7822 318° Northwest  Level FlightAware Approximate
10:47PM -6.8898 125.7264 318° Northwest  Level FlightAware Approximate
10:48PM -6.8282 125.6708 318° Northwest  Level FlightAware Approximate
10:49PM -6.7666 125.6151 318° Northwest  Level FlightAware Approximate
10:50PM -6.7050 125.5594 318° Northwest  Level FlightAware Approximate
10:51PM -6.6434 125.5038 318° Northwest  Level FlightAware Approximate
10:52PM -6.5817 125.4482 318° Northwest  Level FlightAware Approximate
10:53PM -6.5201 125.3926 318° Northwest  Level FlightAware Approximate
10:54PM -6.4584 125.3370 318° Northwest  Level FlightAware Approximate
10:55PM -6.3968 125.2814 318° Northwest  Level FlightAware Approximate
10:56PM -6.3351 125.2258 318° Northwest  Level FlightAware Approximate
10:57PM -6.2735 125.1703 318° Northwest  Level FlightAware Approximate
10:58PM -6.2118 125.1147 318° Northwest  Level FlightAware Approximate
10:59PM -6.1501 125.0592 318° Northwest  Level FlightAware Approximate
11:00PM -6.0884 125.0037 318° Northwest  Level FlightAware Approximate
11:01PM -6.0268 124.9482 318° Northwest  Level FlightAware Approximate
11:02PM -5.9651 124.8927 318° Northwest  Level FlightAware Approximate
11:03PM -5.9034 124.8372 318° Northwest  Level FlightAware Approximate
11:04PM -5.8417 124.7817 318° Northwest  Level FlightAware Approximate
11:05PM -5.7800 124.7263 318° Northwest  Level FlightAware Approximate
11:06PM -5.7183 124.6708 318° Northwest  Level FlightAware Approximate
11:07PM -5.6565 124.6154 318° Northwest  Level FlightAware Approximate
11:08PM -5.5948 124.5600 318° Northwest  Level FlightAware Approximate
11:09PM -5.5331 124.5046 318° Northwest  Level FlightAware Approximate
11:10PM -5.4714 124.4492 318° Northwest  Level FlightAware Approximate
11:11PM -5.4096 124.3938 318° Northwest  Level FlightAware Approximate
11:12PM -5.3479 124.3384 318° Northwest  Level FlightAware Approximate
11:13PM -5.2861 124.2831 318° Northwest  Level FlightAware Approximate
11:14PM -5.2244 124.2277 318° Northwest  Level FlightAware Approximate
11:15PM -5.1626 124.1724 318° Northwest  Level FlightAware Approximate
11:16PM -5.1009 124.1170 318° Northwest  Level FlightAware Approximate
11:17PM -5.0391 124.0617 318° Northwest  Level FlightAware Approximate
11:18PM -4.9773 124.0064 318° Northwest  Level FlightAware Approximate
11:19PM -4.9158 123.9508 318° Northwest  Level FlightAware Approximate
11:20PM -4.8543 123.8952 318° Northwest  Level FlightAware Approximate
11:21PM -4.7928 123.8396 318° Northwest  Level FlightAware Approximate
11:22PM -4.7313 123.7840 318° Northwest  Level FlightAware Approximate
11:23PM -4.6698 123.7285 318° Northwest  Level FlightAware Approximate
11:24PM -4.6083 123.6729 318° Northwest  Level FlightAware Approximate
11:25PM -4.5467 123.6174 318° Northwest  Level FlightAware Approximate
11:26PM -4.4852 123.5618 318° Northwest  Level FlightAware Approximate
11:27PM -4.4237 123.5063 318° Northwest  Level FlightAware Approximate
11:28PM -4.3621 123.4508 318° Northwest  Level FlightAware Approximate
11:29PM -4.3006 123.3953 318° Northwest  Level FlightAware Approximate
11:30PM -4.2390 123.3398 318° Northwest  Level FlightAware Approximate
11:31PM -4.1775 123.2843 318° Northwest  Level FlightAware Approximate
11:32PM -4.1160 123.2288 318° Northwest  Level FlightAware Approximate
11:33PM -4.0544 123.1733 318° Northwest  Level FlightAware Approximate
11:34PM -3.9928 123.1178 318° Northwest  Level FlightAware Approximate
11:35PM -3.9313 123.0624 318° Northwest  Level FlightAware Approximate
11:36PM -3.8697 123.0069 318° Northwest  Level FlightAware Approximate
11:37PM -3.8081 122.9515 318° Northwest  Level FlightAware Approximate
11:38PM -3.7465 122.8960 318° Northwest  Level FlightAware Approximate
11:39PM -3.6850 122.8406 318° Northwest  Level FlightAware Approximate
11:40PM -3.6234 122.7852 318° Northwest  Level FlightAware Approximate
11:41PM -3.5618 122.7298 318° Northwest  Level FlightAware Approximate
11:42PM -3.5002 122.6744 318° Northwest  Level FlightAware Approximate
11:43PM -3.4386 122.6190 318° Northwest  Level FlightAware Approximate
11:44PM -3.3770 122.5636 318° Northwest  Level FlightAware Approximate
11:45PM -3.3154 122.5082 318° Northwest  Level FlightAware Approximate
11:46PM -3.2538 122.4528 318° Northwest  Level FlightAware Approximate
11:47PM -3.1922 122.3974 318° Northwest  Level FlightAware Approximate
11:48PM -3.1306 122.3421 318° Northwest  Level FlightAware Approximate
11:49PM -3.0690 122.2867 318° Northwest  Level FlightAware Approximate
11:50PM -3.0074 122.2314 318° Northwest  Level FlightAware Approximate
11:51PM -2.9457 122.1760 318° Northwest  Level FlightAware Approximate
11:52PM -2.8841 122.1207 318° Northwest  Level FlightAware Approximate
11:53PM -2.8225 122.0653 318° Northwest  Level FlightAware Approximate
11:54PM -2.7609 122.0100 318° Northwest  Level FlightAware Approximate
11:55PM -2.6993 121.9547 318° Northwest  Level FlightAware Approximate
11:56PM -2.6376 121.8994 318° Northwest  Level FlightAware Approximate
11:57PM -2.5760 121.8441 318° Northwest  Level FlightAware Approximate
11:58PM -2.5144 121.7887 318° Northwest  Level FlightAware Approximate
11:59PM -2.4527 121.7335 318° Northwest  Level FlightAware Approximate
12:00AM -2.3911 121.6781 318° Northwest  Level FlightAware Approximate
12:01AM -2.3294 121.6229 318° Northwest  Level FlightAware Approximate
12:02AM -2.2678 121.5676 318° Northwest  Level FlightAware Approximate
12:03AM -2.2062 121.5123 318° Northwest  Level FlightAware Approximate
12:04AM -2.1445 121.4570 318° Northwest  Level FlightAware Approximate
12:05AM -2.0829 121.4017 318° Northwest  Level FlightAware Approximate
12:06AM -2.0212 121.3465 318° Northwest  Level FlightAware Approximate
12:07AM -1.9596 121.2912 318° Northwest  Level FlightAware Approximate
12:08AM -1.8979 121.2359 318° Northwest  Level FlightAware Approximate
12:09AM -1.8362 121.1807 318° Northwest  Level FlightAware Approximate
12:10AM -1.7746 121.1255 318° Northwest  Level FlightAware Approximate
12:11AM -1.7129 121.0702 318° Northwest  Level FlightAware Approximate
12:11AM 3.6182 116.2176 318° Northwest 500 575 38,000  Level FlightAware ADS-B (WBKK / BKI)
12:11AM 3.6866 116.1547 317° Northwest 500 575 38,000  Level FlightAware ADS-B (WBKK / BKI)
12:12AM 3.7492 116.0964 317° Northwest 500 575 38,000  Level FlightAware ADS-B (WBKK / BKI)
12:13AM 3.8228 116.0287 317° Northwest 502 578 38,000  Level FlightAware ADS-B (WBKK / BKI)
12:13AM 3.8840 115.9734 318° Northwest 502 578 38,000  Level FlightAware ADS-B (WBKK / BKI)
12:14AM 3.9604 115.9023 317° Northwest 503 579 38,000  Level FlightAware ADS-B (WBKK / BKI)
12:15AM 4.0293 115.8389 317° Northwest 505 581 38,000  Level FlightAware ADS-B (WBKK / BKI)
12:15AM 4.0958 115.7734 316° Northwest 506 582 38,000  Level FlightAware ADS-B (WBKK / BKI)
12:16AM 4.1566 115.7017 310° West 507 583 38,000  Level FlightAware ADS-B (WBKK / BKI)
12:17AM 4.2154 115.6280 309° West 508 585 38,000  Level FlightAware ADS-B (WBKK / BKI)
12:17AM 4.2729 115.5563 309° West 507 583 38,000  Level FlightAware ADS-B (WBKK / BKI)
12:18AM 4.3331 115.4812 309° West 507 583 38,000  Level FlightAware ADS-B (WBKK / BKI)
12:19AM 4.3904 115.4070 308° West 507 583 38,000  Level FlightAware ADS-B (WBKK / BKI)
12:19AM 4.4480 115.3327 308° West 506 582 38,000  Level FlightAware ADS-B (WBKK / BKI)
12:20AM 4.5057 115.2584 308° West 506 582 38,000  Level FlightAware ADS-B (WBKK / BKI)
12:21AM 4.5633 115.1844 308° West 507 583 38,000  Level FlightAware ADS-B (WBKK / BKI)
12:21AM 4.6212 115.1102 308° West 506 582 38,000  Level FlightAware ADS-B (WBKK / BKI)
12:22AM 4.6803 115.0341 308° West 507 583 38,000  Level FlightAware ADS-B (WBKK / BKI)
12:23AM 4.7376 114.9599 308° West 506 582 38,000  Level FlightAware ADS-B (WBKK / BKI)
12:23AM 4.7953 114.8857 308° West 506 582 38,000  Level FlightAware ADS-B (WBKK / BKI)
12:24AM 4.8530 114.8116 308° West 505 581 38,000  Level FlightAware ADS-B (WBKK / BKI)
12:25AM 4.9105 114.7376 308° West 504 580 38,000  Level FlightAware ADS-B (WBKK / BKI)
12:25AM 4.9673 114.6636 308° West 503 579 38,000  Level FlightAware ADS-B (WBKK / BKI)
12:26AM 5.0247 114.5899 308° West 501 577 38,000  Level FlightAware ADS-B (WBKK / BKI)
12:27AM 5.0814 114.5165 308° West 500 575 38,000  Level FlightAware ADS-B (WBKK / BKI)
12:27AM 5.1385 114.4433 308° West 499 574 38,000  Level FlightAware ADS-B (WBKK / BKI)
12:28AM 5.1933 114.3720 308° West 498 573 38,000  Level FlightAware ADS-B (WBKK / BKI)
12:29AM 5.2516 114.2969 308° West 498 573 38,000  Level FlightAware ADS-B (WBKK / BKI)
12:29AM 5.3080 114.2236 308° West 500 575 38,000  Level FlightAware ADS-B (WBKK / BKI)
12:30AM 5.3664 114.1483 308° West 501 577 38,000  Level FlightAware ADS-B (WBKK / BKI)
12:31AM 5.4219 114.0766 308° West 500 575 38,000  Level FlightAware ADS-B (WBKK / BKI)
12:31AM 5.4786 114.0030 308° West 501 577 38,000  Level FlightAware ADS-B (WBKK / BKI)
12:32AM 5.5354 113.9292 308° West 504 580 38,000  Level FlightAware ADS-B (WBKK / BKI)
12:33AM 5.5946 113.8533 308° West 504 580 38,000  Level FlightAware ADS-B (WBKK / BKI)
12:33AM 5.6513 113.7793 308° West 503 579 38,000  Level FlightAware ADS-B (WBKK / BKI)
12:34AM 5.7083 113.7055 308° West 501 577 38,000  Level FlightAware ADS-B (WBKK / BKI)
12:35AM 5.7654 113.6320 308° West 500 575 38,000  Level FlightAware ADS-B (WBKK / BKI)
12:35AM 5.8222 113.5585 308° West 499 574 38,000  Level FlightAware ADS-B (WBKK / BKI)
12:36AM 5.8796 113.4832 307° West 498 573 38,000  Level FlightAware ADS-B (WBKK / BKI)
12:37AM 5.9347 113.4120 308° West 496 571 38,000  Level FlightAware ADS-B (WBKK / BKI)
12:37AM 5.9907 113.3390 308° West 495 570 38,000  Level FlightAware ADS-B (WBKK / BKI)
12:38AM 6.0452 113.2647 306° West 495 570 38,000  Level FlightAware ADS-B (WBKK / BKI)
12:39AM 6.0980 113.1897 305° West 495 570 38,000  Level FlightAware ADS-B (WBKK / BKI)
12:39AM 6.1520 113.1148 306° West 497 572 38,000  Level FlightAware ADS-B (WBKK / BKI)
12:40AM 6.2058 113.0398 306° West 498 573 38,000  Level FlightAware ADS-B (WBKK / BKI)
12:41AM 6.2600 112.9646 306° West 498 573 38,000  Level FlightAware ADS-B (WBKK / BKI)
12:41AM 6.3144 112.8897 306° West 497 572 38,000  Level FlightAware ADS-B (WBKK / BKI)
12:42AM 6.3696 112.8130 306° West 497 572 38,000  Level FlightAware ADS-B (WBKK / BKI)
12:43AM 6.4307 112.7287 306° West 497 572 38,000  Level FlightAware ADS-B (WBKK / BKI)
12:48AM 6.8733 112.1114 306° West 503 579 38,000  Level FlightAware ADS-B (WBKK / BKI)
12:51AM 6.9794 111.9623 306° West  Level FlightAware Approximate
12:52AM 7.0276 111.8945 306° West  Level FlightAware Approximate
12:53AM 7.0758 111.8267 306° West  Level FlightAware Approximate
12:54AM 7.1240 111.7589 306° West  Level FlightAware Approximate
12:55AM 7.1721 111.6910 306° West  Level FlightAware Approximate
12:56AM 7.2203 111.6232 306° West  Level FlightAware Approximate
12:57AM 7.2684 111.5553 306° West  Level FlightAware Approximate
12:58AM 7.3167 111.4875 306° West  Level FlightAware Approximate
12:59AM 7.3649 111.4197 306° West  Level FlightAware Approximate
01:00AM 7.4131 111.3518 306° West  Level FlightAware Approximate
01:01AM 7.4614 111.2840 306° West  Level FlightAware Approximate
01:02AM 7.5096 111.2161 306° West  Level FlightAware Approximate
01:03AM 7.5578 111.1482 306° West  Level FlightAware Approximate
01:04AM 7.6060 111.0804 306° West  Level FlightAware Approximate
01:05AM 7.6542 111.0125 306° West  Level FlightAware Approximate
01:06AM 7.7023 110.9445 306° West  Level FlightAware Approximate
01:07AM 7.7505 110.8766 306° West  Level FlightAware Approximate
01:08AM 7.7986 110.8086 306° West  Level FlightAware Approximate
01:09AM 7.8468 110.7407 306° West  Level FlightAware Approximate
01:10AM 7.8949 110.6727 306° West  Level FlightAware Approximate
01:11AM 7.9430 110.6047 306° West  Level FlightAware Approximate
01:12AM 7.9911 110.5367 306° West  Level FlightAware Approximate
01:13AM 8.0392 110.4686 306° West  Level FlightAware Approximate
01:14AM 8.0873 110.4006 306° West  Level FlightAware Approximate
01:15AM 8.1354 110.3325 306° West  Level FlightAware Approximate
01:16AM 8.1834 110.2644 306° West  Level FlightAware Approximate
01:17AM 8.2315 110.1964 306° West  Level FlightAware Approximate
01:18AM 8.2796 110.1283 306° West  Level FlightAware Approximate
01:19AM 8.3278 110.0603 306° West  Level FlightAware Approximate
01:20AM 8.3759 109.9922 306° West  Level FlightAware Approximate
01:21AM 8.4240 109.9241 306° West  Level FlightAware Approximate
01:22AM 8.4720 109.8560 306° West  Level FlightAware Approximate
01:23AM 8.5201 109.7878 306° West  Level FlightAware Approximate
01:24AM 8.5682 109.7197 306° West  Level FlightAware Approximate
01:25AM 8.6162 109.6515 305° West  Level FlightAware Approximate
01:26AM 8.6643 109.5834 305° West  Level FlightAware Approximate
01:27AM 8.7123 109.5152 305° West  Level FlightAware Approximate
01:28AM 8.7603 109.4469 305° West  Level FlightAware Approximate
01:29AM 8.8083 109.3787 305° West  Level FlightAware Approximate
01:30AM 8.8563 109.3104 305° West  Level FlightAware Approximate
01:31AM 8.9042 109.2421 305° West  Level FlightAware Approximate
01:32AM 8.9521 109.1737 305° West  Level FlightAware Approximate
01:33AM 8.9999 109.1054 305° West  Level FlightAware Approximate
01:34AM 9.0478 109.0370 305° West  Level FlightAware Approximate
01:35AM 9.0956 108.9686 305° West  Level FlightAware Approximate
01:36AM 9.1435 108.9002 305° West  Level FlightAware Approximate
01:37AM 9.1913 108.8317 305° West  Level FlightAware Approximate
01:38AM 9.2391 108.7633 305° West  Level FlightAware Approximate
01:39AM 9.2869 108.6948 305° West  Level FlightAware Approximate
01:40AM 9.3347 108.6263 305° West  Level FlightAware Approximate
01:41AM 9.3824 108.5578 305° West  Level FlightAware Approximate
01:42AM 9.4302 108.4893 305° West  Level FlightAware Approximate
01:43AM 9.4787 108.4213 307° West  Level FlightAware Approximate
01:44AM 9.5291 108.3547 307° West  Level FlightAware Approximate
01:45AM 9.5794 108.2881 307° West  Level FlightAware Approximate
01:46AM 9.6298 108.2215 307° West  Level FlightAware Approximate
01:47AM 9.6801 108.1548 307° West  Level FlightAware Approximate
01:48AM 9.7304 108.0881 307° West  Level FlightAware Approximate
01:49AM 9.7807 108.0214 307° West  Level FlightAware Approximate
01:50AM 9.8310 107.9547 307° West  Level FlightAware Approximate
01:51AM 9.8813 107.8880 307° West  Level FlightAware Approximate
01:52AM 9.9315 107.8212 307° West  Level FlightAware Approximate
01:53AM 9.9818 107.7544 307° West  Level FlightAware Approximate
01:54AM 10.0320 107.6876 307° West  Level FlightAware Approximate
01:55AM 10.0822 107.6208 307° West  Level FlightAware Approximate
01:56AM 10.1325 107.5539 307° West  Level FlightAware Approximate
01:57AM 10.1829 107.4872 308° West  Level FlightAware Approximate
01:58AM 10.2333 107.4205 308° West  Level FlightAware Approximate
01:59AM 10.2836 107.3538 307° West  Level FlightAware Approximate
02:00AM 10.3340 107.2870 307° West  Level FlightAware Approximate
02:01AM 10.3844 107.2202 307° West  Level FlightAware Approximate
02:02AM 10.4347 107.1534 307° West  Level FlightAware Approximate
02:03AM 10.4850 107.0866 307° West  Level FlightAware Approximate
02:04AM 10.5353 107.0197 307° West  Level FlightAware Approximate
02:05AM 10.5857 106.9529 307° West  Level FlightAware Approximate
02:06AM 10.6359 106.8860 307° West  Level FlightAware Approximate
02:07AM 10.6862 106.8191 307° West  Level FlightAware Approximate
02:08AM 10.7365 106.7521 307° West  Level FlightAware Approximate
02:09AM 10.7867 106.6852 307° West  Level FlightAware Approximate
02:10AM 10.8318 106.6149 297° West  Level FlightAware Approximate
02:11AM 10.8695 106.5399 297° West  Level FlightAware Approximate
02:12AM 10.9071 106.4648 297° West  Level FlightAware Approximate
02:13AM 10.9447 106.3897 297° West  Level FlightAware Approximate
02:14AM 10.9824 106.3146 297° West  Level FlightAware Approximate
02:15AM 11.0199 106.2395 297° West  Level FlightAware Approximate
02:16AM 11.0575 106.1643 297° West  Level FlightAware Approximate
02:17AM 11.0951 106.0891 297° West  Level FlightAware Approximate
02:18AM 11.1326 106.0139 297° West  Level FlightAware Approximate
02:19AM 11.1701 105.9387 297° West  Level FlightAware Approximate
02:20AM 11.2076 105.8635 297° West  Level FlightAware Approximate
02:21AM 11.2451 105.7883 297° West  Level FlightAware Approximate
02:22AM 11.2825 105.7130 297° West  Level FlightAware Approximate
02:23AM 11.3200 105.6377 297° West  Level FlightAware Approximate
02:24AM 11.3574 105.5624 297° West  Level FlightAware Approximate
02:25AM 11.3948 105.4871 297° West  Level FlightAware Approximate
02:26AM 11.4321 105.4118 297° West  Level FlightAware Approximate
02:27AM 11.4695 105.3364 297° West  Level FlightAware Approximate
02:28AM 11.5069 105.2610 297° West  Level FlightAware Approximate
02:29AM 11.5442 105.1856 297° West  Level FlightAware Approximate
02:30AM 11.5815 105.1102 297° West  Level FlightAware Approximate
02:31AM 11.6187 105.0348 297° West  Level FlightAware Approximate
02:32AM 11.6560 104.9593 297° West  Level FlightAware Approximate
02:33AM 11.6932 104.8838 297° West  Level FlightAware Approximate
02:34AM 11.7305 104.8083 297° West  Level FlightAware Approximate
02:35AM 11.7677 104.7328 297° West  Level FlightAware Approximate
02:36AM 11.8048 104.6572 297° West  Level FlightAware Approximate
02:37AM 11.8420 104.5817 297° West  Level FlightAware Approximate
02:38AM 11.8792 104.5061 297° West  Level FlightAware Approximate
02:39AM 11.9163 104.4305 297° West  Level FlightAware Approximate
02:40AM 11.9534 104.3548 297° West  Level FlightAware Approximate
02:41AM 11.9904 104.2792 297° West  Level FlightAware Approximate
02:42AM 12.0275 104.2035 297° West  Level FlightAware Approximate
02:43AM 12.0646 104.1278 297° West  Level FlightAware Approximate
02:44AM 12.1016 104.0521 297° West  Level FlightAware Approximate
02:45AM 12.1386 103.9764 297° West  Level FlightAware Approximate
02:46AM 12.1756 103.9006 297° West  Level FlightAware Approximate
02:47AM 12.2125 103.8249 297° West  Level FlightAware Approximate
02:48AM 12.2494 103.7491 297° West  Level FlightAware Approximate
02:49AM 12.2864 103.6732 296° West  Level FlightAware Approximate
02:50AM 12.3233 103.5974 296° West  Level FlightAware Approximate
02:51AM 12.3602 103.5216 296° West  Level FlightAware Approximate
02:52AM 12.3970 103.4457 296° West  Level FlightAware Approximate
02:53AM 12.4338 103.3698 296° West  Level FlightAware Approximate
02:54AM 12.4706 103.2939 296° West  Level FlightAware Approximate
02:55AM 12.5074 103.2179 296° West  Level FlightAware Approximate
02:56AM 12.5442 103.1419 296° West  Level FlightAware Approximate
02:57AM 12.5809 103.0659 296° West  Level FlightAware Approximate
02:58AM 12.6177 102.9899 296° West  Level FlightAware Approximate
02:59AM 12.6544 102.9139 296° West  Level FlightAware Approximate
03:00AM 12.6911 102.8379 296° West  Level FlightAware Approximate
03:01AM 12.7277 102.7618 296° West  Level FlightAware Approximate
03:02AM 12.7644 102.6857 296° West  Level FlightAware Approximate
03:03AM 12.8010 102.6096 296° West  Level FlightAware Approximate
03:04AM 12.8376 102.5334 296° West  Level FlightAware Approximate
03:05AM 12.8742 102.4573 296° West  Level FlightAware Approximate
03:06AM 12.9107 102.3811 296° West  Level FlightAware Approximate
03:07AM 12.9473 102.3048 296° West  Level FlightAware Approximate
03:08AM 12.9838 102.2286 296° West  Level FlightAware Approximate
03:09AM 13.0203 102.1524 296° West  Level FlightAware Approximate
03:10AM 13.0567 102.0761 296° West  Level FlightAware Approximate
03:11AM 13.0932 101.9998 296° West  Level FlightAware Approximate
03:12AM 13.1296 101.9235 296° West  Level FlightAware Approximate
03:13AM 13.1660 101.8471 296° West  Level FlightAware Approximate
03:14AM 13.2023 101.7708 296° West  Level FlightAware Approximate